Time;durP1;ratioP1;P1;durP2;ratioP2;P2;SDS_P1;SDS_P2;PMS_P1;PMS_P2;Temp;Humidity;BMP_temperature;BMP_pressure;BME280_temperature;BME280_humidity;BME280_pressure;Samples;Min_cycle;Max_cycle;Signal;HPM_P1;HPM_P2
2021/10/29 00:00:37;;;;;;;17.42;13.75;;;;;;;8.08;60.44;100624.59;5013099;28;20083;-78
2021/10/29 00:03:04;;;;;;;16.67;13.35;;;;;;;8.02;60.96;100614.59;5013124;28;20057;-77
2021/10/29 00:05:30;;;;;;;17.00;15.05;;;;;;;7.97;61.07;100629.97;5013323;28;20022;-78
2021/10/29 00:07:55;;;;;;;19.20;15.57;;;;;;;7.93;61.18;100620.69;5013119;28;20540;-78
2021/10/29 00:10:21;;;;;;;17.10;13.68;;;;;;;7.68;60.93;100592.25;5013190;28;20030;-77
2021/10/29 00:12:46;;;;;;;15.48;12.90;;;;;;;7.78;60.83;100604.44;5012798;28;20526;-78
2021/10/29 00:15:12;;;;;;;18.50;12.60;;;;;;;7.78;61.33;100601.81;4995180;28;20022;-78
2021/10/29 00:17:37;;;;;;;17.50;14.05;;;;;;;7.46;61.15;100552.06;5012891;28;20491;-78
2021/10/29 00:20:05;;;;;;;17.15;12.82;;;;;;;7.54;61.68;100552.22;4994861;28;20038;-78
2021/10/29 00:22:31;;;;;;;13.55;11.98;;;;;;;7.24;61.07;100511.03;5013016;28;20034;-78
2021/10/29 00:24:57;;;;;;;14.55;12.88;;;;;;;7.30;61.33;100549.91;5012778;28;20517;-77
2021/10/29 00:27:23;;;;;;;13.30;11.30;;;;;;;7.76;61.15;100608.19;5012716;28;20076;-78
2021/10/29 00:29:48;;;;;;;15.35;12.00;;;;;;;7.62;61.04;100583.09;5012704;28;20030;-78
2021/10/29 00:32:14;;;;;;;14.43;11.68;;;;;;;7.65;61.03;100588.09;5012534;28;20021;-78
2021/10/29 00:34:39;;;;;;;17.58;12.13;;;;;;;7.71;60.87;100605.13;4994766;28;20065;-77
2021/10/29 00:37:05;;;;;;;15.55;12.20;;;;;;;7.60;61.57;100580.59;5012629;28;20068;-78
2021/10/29 00:39:30;;;;;;;14.65;11.32;;;;;;;7.03;61.12;100498.91;5012629;28;20057;-78
2021/10/29 00:41:56;;;;;;;13.45;11.25;;;;;;;7.01;60.87;100494.63;5012507;28;20084;-78
2021/10/29 00:44:23;;;;;;;14.43;10.85;;;;;;;7.61;61.06;100594.56;5012413;28;20029;-77
2021/10/29 00:46:49;;;;;;;14.85;10.77;;;;;;;7.45;61.59;100567.97;5012511;28;20040;-78
2021/10/29 00:49:14;;;;;;;17.42;12.73;;;;;;;7.24;61.47;100539.09;5012588;28;20028;-78
2021/10/29 00:51:39;;;;;;;16.55;11.95;;;;;;;7.39;61.68;100557.94;5012245;28;20030;-78
2021/10/29 00:54:05;;;;;;;14.35;11.80;;;;;;;7.10;61.45;100518.44;5012244;28;20483;-78
2021/10/29 00:56:30;;;;;;;15.15;11.90;;;;;;;6.86;61.78;100492.50;4994709;28;20033;-78
2021/10/29 00:58:56;;;;;;;16.33;12.00;;;;;;;7.25;61.47;100551.25;5012325;28;20108;-77
2021/10/29 01:01:21;;;;;;;14.88;12.50;;;;;;;7.41;62.02;100580.50;5012325;28;20026;-77
2021/10/29 01:03:47;;;;;;;14.40;12.18;;;;;;;7.32;62.08;100565.53;5012226;28;20026;-77
2021/10/29 01:06:12;;;;;;;15.93;12.95;;;;;;;6.95;61.53;100512.72;5012173;28;20033;-78
2021/10/29 01:08:39;;;;;;;17.20;11.35;;;;;;;7.42;61.43;100579.53;5011883;28;20034;-77
2021/10/29 01:11:06;;;;;;;13.98;11.48;;;;;;;7.36;61.97;100561.69;5011769;28;20030;-77
2021/10/29 01:13:32;;;;;;;16.98;12.23;;;;;;;6.77;61.50;100475.72;5011885;28;20053;-77
2021/10/29 01:15:58;;;;;;;18.20;12.75;;;;;;;7.40;61.29;100572.75;5011803;28;20104;-77
2021/10/29 01:18:23;;;;;;;16.13;11.50;;;;;;;7.47;61.41;100568.66;5011914;28;20081;-77
2021/10/29 01:20:49;;;;;;;16.88;12.02;;;;;;;7.38;61.95;100553.66;5011866;28;20032;-77
2021/10/29 01:23:15;;;;;;;14.35;12.32;;;;;;;7.47;61.49;100563.41;4994409;28;20410;-77
2021/10/29 01:25:40;;;;;;;18.40;12.70;;;;;;;6.96;61.56;100486.31;5011790;28;20030;-77
2021/10/29 01:28:10;;;;;;;16.38;11.88;;;;;;;6.89;61.53;100485.19;5011451;28;20113;-77
2021/10/29 01:30:36;;;;;;;18.25;13.70;;;;;;;7.10;61.78;100532.41;5010820;28;20113;-77
2021/10/29 01:33:02;;;;;;;13.25;11.73;;;;;;;7.35;61.99;100562.63;5011867;28;20530;-77
2021/10/29 01:35:28;;;;;;;16.20;12.38;;;;;;;6.95;61.81;100510.91;5011610;28;20057;-76
2021/10/29 01:37:54;;;;;;;17.20;13.63;;;;;;;7.15;61.92;100538.09;5011746;28;20053;-77
2021/10/29 01:40:20;;;;;;;19.13;13.35;;;;;;;7.39;61.69;100568.47;5011694;28;20061;-77
2021/10/29 01:42:47;;;;;;;17.83;12.88;;;;;;;6.85;61.80;100480.31;4993944;28;20113;-76
2021/10/29 01:45:13;;;;;;;16.20;12.75;;;;;;;7.33;61.58;100562.78;5011653;28;20121;-77
2021/10/29 01:47:39;;;;;;;17.75;13.75;;;;;;;7.01;61.50;100517.44;5011669;28;20033;-77
2021/10/29 01:50:07;;;;;;;17.58;12.77;;;;;;;6.80;61.96;100488.59;4994137;28;20029;-76
2021/10/29 01:52:33;;;;;;;17.13;13.57;;;;;;;7.28;61.45;100562.34;5011566;28;20510;-76
2021/10/29 01:54:58;;;;;;;15.93;13.07;;;;;;;6.78;61.85;100500.19;5011384;28;20034;-76
2021/10/29 01:57:24;;;;;;;19.35;13.90;;;;;;;6.79;61.62;100500.06;4993877;28;20135;-77
2021/10/29 01:59:49;;;;;;;17.67;12.85;;;;;;;7.21;61.96;100569.09;5011551;28;20032;-76
2021/10/29 02:02:15;;;;;;;19.20;13.48;;;;;;;6.16;61.54;100401.38;5011441;28;20602;-77
2021/10/29 02:04:40;;;;;;;17.63;13.52;;;;;;;6.93;61.85;100519.88;5011444;28;20033;-76
2021/10/29 02:07:06;;;;;;;15.60;13.02;;;;;;;7.15;61.96;100572.22;5011478;28;20032;-76
2021/10/29 02:09:31;;;;;;;18.17;13.82;;;;;;;6.83;61.64;100513.75;5011442;28;20029;-76
2021/10/29 02:11:57;;;;;;;18.25;13.00;;;;;;;6.52;62.09;100471.72;5011425;28;20030;-76
2021/10/29 02:14:22;;;;;;;19.23;13.60;;;;;;;7.01;61.80;100555.03;5011481;28;20030;-76
2021/10/29 02:16:48;;;;;;;18.20;13.60;;;;;;;6.74;61.71;100511.91;4993579;28;20096;-76
2021/10/29 02:19:13;;;;;;;17.60;13.45;;;;;;;6.67;62.57;100503.69;5011287;28;20026;-76
2021/10/29 02:21:39;;;;;;;18.90;13.63;;;;;;;6.68;61.86;100502.72;5011301;28;20037;-76
2021/10/29 02:24:05;;;;;;;19.55;15.10;;;;;;;7.06;62.55;100572.19;5011225;28;20029;-77
2021/10/29 02:26:30;;;;;;;18.73;14.35;;;;;;;6.78;62.19;100529.06;4993566;28;20029;-76
2021/10/29 02:28:57;;;;;;;17.98;14.73;;;;;;;7.14;62.00;100583.69;5011112;28;20050;-76
2021/10/29 02:31:25;;;;;;;19.02;15.18;;;;;;;6.57;62.26;100510.69;5010991;28;20049;-76
2021/10/29 02:33:51;;;;;;;19.83;14.15;;;;;;;6.57;62.24;100487.06;4993256;28;20038;-76
2021/10/29 02:36:16;;;;;;;18.70;14.25;;;;;;;7.04;62.32;100580.19;5011051;28;20033;-77
2021/10/29 02:38:41;;;;;;;18.40;14.70;;;;;;;6.59;61.87;100509.59;5011102;28;20029;-78
2021/10/29 02:41:07;;;;;;;19.70;14.70;;;;;;;6.61;62.14;100506.84;5011094;28;20026;-78
2021/10/29 02:43:33;;;;;;;21.35;15.95;;;;;;;7.05;62.11;100578.41;5014518;28;20150;-77
2021/10/29 02:45:58;;;;;;;20.42;15.48;;;;;;;6.97;61.87;100550.16;5014725;28;20483;-77
2021/10/29 02:48:24;;;;;;;20.27;15.07;;;;;;;7.08;62.24;100570.25;5014653;28;20030;-78
2021/10/29 02:50:49;;;;;;;18.52;15.82;;;;;;;6.83;62.28;100537.38;5014629;28;20029;-78
2021/10/29 02:53:15;;;;;;;20.85;15.93;;;;;;;6.80;61.75;100530.59;5014430;28;20064;-78
2021/10/29 02:55:40;;;;;;;21.77;15.20;;;;;;;6.73;61.97;100516.31;5014489;28;20036;-79
2021/10/29 02:58:06;;;;;;;21.05;15.65;;;;;;;6.99;62.03;100550.88;5014299;28;20107;-78
2021/10/29 03:00:32;;;;;;;19.27;14.75;;;;;;;6.66;62.24;100513.34;5014337;28;20037;-78
2021/10/29 03:02:58;;;;;;;21.20;15.52;;;;;;;6.65;62.06;100497.75;5014102;28;20033;-78
2021/10/29 03:05:24;;;;;;;22.63;14.65;;;;;;;6.97;62.22;100553.63;4996658;28;20504;-78
2021/10/29 03:07:49;;;;;;;24.35;16.35;;;;;;;6.88;61.85;100548.31;5014087;28;20018;-78
2021/10/29 03:10:15;;;;;;;19.05;15.18;;;;;;;6.92;62.16;100557.59;5014293;28;20041;-78
2021/10/29 03:12:41;;;;;;;18.92;14.20;;;;;;;6.45;61.99;100481.06;5013938;28;20034;-78
2021/10/29 03:15:09;;;;;;;22.02;15.70;;;;;;;6.49;61.79;100498.19;4996398;28;20037;-78
2021/10/29 03:17:35;;;;;;;17.50;15.13;;;;;;;6.99;62.11;100566.63;5013703;28;20050;-79
2021/10/29 03:20:01;;;;;;;21.55;16.00;;;;;;;6.46;62.27;100481.88;5013895;28;20065;-78
2021/10/29 03:22:27;;;;;;;17.88;15.48;;;;;;;6.40;62.05;100487.66;5013973;28;20042;-78
2021/10/29 03:24:52;;;;;;;18.85;14.90;;;;;;;6.58;61.60;100513.16;5014060;28;20116;-78
2021/10/29 03:27:19;;;;;;;21.92;15.85;;;;;;;6.91;61.76;100562.00;5014053;28;20022;-78
2021/10/29 03:29:45;;;;;;;18.67;15.82;;;;;;;6.66;61.79;100525.66;4996146;28;20121;-78
2021/10/29 03:32:10;;;;;;;21.15;15.50;;;;;;;6.80;62.23;100564.72;4996124;28;20108;-79
2021/10/29 03:34:36;;;;;;;21.08;15.48;;;;;;;6.23;62.25;100476.78;5013498;28;20029;-78
2021/10/29 03:37:06;;;;;;;18.13;14.82;;;;;;;6.72;62.26;100556.66;4996058;28;20572;-78
2021/10/29 03:39:36;;;;;;;21.75;15.38;;;;;;;6.72;62.39;100553.19;5013857;28;20021;-78
2021/10/29 03:42:08;;;;;;;19.45;15.57;;;;;;;6.30;62.00;100508.56;5013712;28;20101;-78
2021/10/29 03:44:49;;;;;;;21.10;16.35;;;;;;;6.54;62.44;100539.78;5013602;28;20017;-78
2021/10/29 03:47:17;;;;;;;21.67;16.17;;;;;;;6.62;62.45;100555.72;5013636;28;20108;-78
2021/10/29 03:49:54;;;;;;;23.83;15.95;;;;;;;6.33;62.42;100506.50;5013456;28;20105;-78
2021/10/29 03:52:37;;;;;;;23.63;16.88;;;;;;;6.47;62.59;100547.34;5013386;28;20030;-78
2021/10/29 03:55:08;;;;;;;22.40;17.05;;;;;;;6.55;62.53;100552.78;4994813;28;20053;-78
2021/10/29 03:57:34;;;;;;;24.20;18.02;;;;;;;6.38;62.34;100529.75;4995702;28;20514;-79
2021/10/29 03:59:59;;;;;;;23.33;16.67;;;;;;;6.57;62.55;100550.03;5013209;28;20022;-78
2021/10/29 04:02:25;;;;;;;23.42;17.67;;;;;;;6.57;62.60;100563.97;5013154;28;20384;-79
2021/10/29 04:04:51;;;;;;;28.75;21.92;;;;;;;6.63;62.45;100552.16;5013269;28;20033;-78
2021/10/29 04:07:17;;;;;;;22.05;17.13;;;;;;;6.55;62.32;100530.97;5011905;28;20108;-78
2021/10/29 04:09:45;;;;;;;27.63;20.80;;;;;;;6.34;62.22;100509.97;5013135;28;20053;-78
2021/10/29 04:12:12;;;;;;;24.42;19.35;;;;;;;6.23;61.57;100462.81;5013019;28;20518;-79
2021/10/29 04:14:38;;;;;;;31.67;25.13;;;;;;;6.27;62.18;100486.03;5012846;28;20530;-78
2021/10/29 04:17:04;;;;;;;31.83;24.35;;;;;;;6.77;61.85;100558.88;5012856;28;20637;-77
2021/10/29 04:19:30;;;;;;;26.30;21.23;;;;;;;6.61;61.89;100535.69;5012978;28;20030;-79
2021/10/29 04:21:57;;;;;;;27.38;21.77;;;;;;;6.60;61.86;100510.41;5012994;28;20026;-79
2021/10/29 04:24:23;;;;;;;28.13;22.48;;;;;;;6.35;61.26;100469.66;4995064;28;20042;-79
2021/10/29 04:26:49;;;;;;;27.58;22.60;;;;;;;6.36;61.40;100487.91;5012536;28;20105;-78
2021/10/29 04:29:16;;;;;;;30.38;21.05;;;;;;;6.65;61.21;100529.22;4995034;28;20041;-79
2021/10/29 04:31:49;;;;;;;24.92;20.10;;;;;;;6.80;62.06;100562.09;5012801;28;20029;-78
2021/10/29 04:34:16;;;;;;;28.10;19.55;;;;;;;6.32;61.35;100481.25;4995104;28;20034;-78
2021/10/29 04:36:42;;;;;;;28.27;19.65;;;;;;;6.76;61.65;100534.44;5012641;28;20026;-78
2021/10/29 04:39:14;;;;;;;32.88;22.10;;;;;;;6.54;61.59;100495.19;5012488;28;20030;-78
2021/10/29 04:41:41;;;;;;;31.98;23.70;;;;;;;6.41;61.30;100477.03;5012368;28;20400;-79
2021/10/29 04:44:09;;;;;;;33.05;27.08;;;;;;;6.76;60.77;100531.81;5012467;28;20411;-78
2021/10/29 04:46:35;;;;;;;31.83;24.63;;;;;;;6.95;61.42;100562.59;5012289;28;20466;-78
2021/10/29 04:49:01;;;;;;;34.53;22.88;;;;;;;6.85;61.53;100562.53;5012305;28;20069;-78
2021/10/29 04:51:28;;;;;;;33.90;23.83;;;;;;;6.39;61.64;100515.66;5012475;28;20125;-78
2021/10/29 04:53:55;;;;;;;30.33;23.08;;;;;;;6.62;61.80;100555.72;5012279;28;20022;-77
2021/10/29 04:56:20;;;;;;;36.42;25.65;;;;;;;6.72;62.05;100567.16;4994798;28;20172;-78
2021/10/29 04:58:46;;;;;;;41.80;23.42;;;;;;;6.76;61.87;100570.34;5011690;28;20108;-78
2021/10/29 05:01:12;;;;;;;37.08;25.77;;;;;;;6.22;61.53;100490.00;5012073;28;20034;-78
2021/10/29 05:03:37;;;;;;;37.45;26.92;;;;;;;6.73;61.67;100575.84;5011921;28;20030;-78
2021/10/29 05:06:03;;;;;;;35.75;25.27;;;;;;;6.26;61.96;100522.88;5011719;28;20030;-78
2021/10/29 05:08:28;;;;;;;35.83;26.23;;;;;;;6.69;62.18;100577.91;5011897;28;20029;-77
2021/10/29 05:10:53;;;;;;;42.15;26.60;;;;;;;6.33;61.78;100510.94;4994234;28;20031;-78
2021/10/29 05:13:19;;;;;;;35.10;28.08;;;;;;;6.62;61.65;100535.56;5011820;28;20093;-77
2021/10/29 05:15:44;;;;;;;33.72;24.30;;;;;;;6.35;61.40;100501.97;4994134;28;20419;-78
2021/10/29 05:18:17;;;;;;;34.40;26.88;;;;;;;6.77;61.69;100561.50;5011445;28;20047;-77
2021/10/29 05:20:43;;;;;;;35.65;26.73;;;;;;;6.95;61.63;100589.69;5011209;28;20044;-78
2021/10/29 05:23:09;;;;;;;38.35;29.65;;;;;;;6.92;60.97;100583.84;4993700;28;20449;-78
2021/10/29 05:25:35;;;;;;;44.97;31.45;;;;;;;6.71;61.19;100533.16;5011658;28;20091;-78
2021/10/29 05:28:01;;;;;;;37.42;27.70;;;;;;;6.26;61.46;100462.56;5011341;28;20698;-77
2021/10/29 05:30:26;;;;;;;39.83;28.60;;;;;;;6.93;61.53;100570.59;5011675;28;20021;-79
2021/10/29 05:32:52;;;;;;;34.75;25.05;;;;;;;6.64;61.04;100538.06;5011414;28;20026;-75
2021/10/29 05:35:17;;;;;;;40.83;29.17;;;;;;;6.84;60.99;100554.78;5011027;28;20035;-78
2021/10/29 05:37:43;;;;;;;44.00;29.15;;;;;;;7.11;61.55;100604.13;5011513;28;20080;-77
2021/10/29 05:40:09;;;;;;;38.88;27.17;;;;;;;7.15;60.87;100601.13;5011893;28;20430;-77
2021/10/29 05:42:34;;;;;;;36.10;26.20;;;;;;;7.25;61.47;100606.41;5011458;28;20025;-79
2021/10/29 05:45:02;;;;;;;40.85;28.77;;;;;;;7.27;61.19;100604.50;5010663;28;20025;-77
2021/10/29 05:47:28;;;;;;;42.40;28.83;;;;;;;7.22;60.80;100602.25;5010498;28;20495;-78
2021/10/29 05:49:54;;;;;;;47.78;30.00;;;;;;;7.36;61.16;100603.72;5011211;28;20041;-77
2021/10/29 05:52:21;;;;;;;42.35;28.67;;;;;;;7.36;60.76;100608.13;4991381;28;20561;-77
2021/10/29 05:57:34;;;;;;;35.63;25.48;;;;;;;6.76;60.95;100526.56;5005044;28;20076;-77
2021/10/29 05:59:59;;;;;;;38.28;28.77;;;;;;;7.34;61.41;100616.97;5009965;28;20504;-79
2021/10/29 06:02:25;;;;;;;42.53;28.65;;;;;;;7.19;61.31;100593.81;5009974;28;20119;-77
2021/10/29 06:04:51;;;;;;;38.95;29.17;;;;;;;6.79;61.70;100515.81;4993112;28;20034;-78
2021/10/29 06:07:16;;;;;;;39.97;28.73;;;;;;;7.49;61.54;100614.84;5010897;28;20014;-78
2021/10/29 06:09:42;;;;;;;39.40;26.48;;;;;;;7.46;61.76;100598.53;5010269;28;20521;-78
2021/10/29 06:12:08;;;;;;;40.15;27.23;;;;;;;7.59;61.47;100615.72;4992923;28;20041;-77
2021/10/29 06:14:35;;;;;;;39.35;29.38;;;;;;;7.12;61.77;100540.16;5010723;28;20022;-77
2021/10/29 06:17:01;;;;;;;38.22;28.13;;;;;;;7.42;61.44;100579.53;5010587;28;20136;-77
2021/10/29 06:19:27;;;;;;;40.58;28.38;;;;;;;7.33;61.67;100577.69;5013025;28;20022;-78
2021/10/29 06:24:18;;;;;;;47.75;30.25;;;;;;;7.82;61.57;100615.53;5014412;28;20041;-78
2021/10/29 06:29:36;;;;;;;39.15;27.65;;;;;;;8.08;61.20;100631.63;4983787;28;20629;-78
2021/10/29 06:32:04;;;;;;;37.75;28.48;;;;;;;7.72;61.95;100572.59;4996577;28;20038;-77
2021/10/29 06:34:29;;;;;;;35.10;25.95;;;;;;;7.85;61.41;100576.66;5014565;28;20053;-78
2021/10/29 06:36:55;;;;;;;38.30;27.63;;;;;;;7.88;61.24;100578.19;4996899;28;20117;-79
2021/10/29 06:39:20;;;;;;;34.25;26.15;;;;;;;8.22;61.72;100636.53;5014380;28;20022;-79
2021/10/29 06:41:47;;;;;;;29.17;24.15;;;;;;;7.84;61.98;100566.28;5014285;28;20105;-78
2021/10/29 07:40:11;;;;;;;17.73;13.90;;;;;;;9.76;61.10;100501.06;4997992;28;20032;-84
2021/10/29 07:45:17;;;;;;;24.17;15.23;;;;;;;10.05;60.71;100529.88;5013421;28;20036;-84
2021/10/29 07:47:43;;;;;;;16.10;13.13;;;;;;;10.50;60.95;100594.00;5011241;28;20112;-83
2021/10/29 07:50:11;;;;;;;16.67;11.57;;;;;;;10.41;60.39;100563.25;5009187;28;20088;-82
2021/10/29 07:52:38;;;;;;;16.60;13.25;;;;;;;10.66;60.35;100587.22;5011778;28;20111;-84
2021/10/29 07:55:06;;;;;;;19.98;13.13;;;;;;;10.47;60.20;100556.53;4999250;28;20039;-83
2021/10/29 07:57:31;;;;;;;17.63;13.73;;;;;;;10.17;60.11;100489.91;4985308;28;20041;-83
2021/10/29 07:59:57;;;;;;;15.30;13.70;;;;;;;10.60;59.79;100542.94;4991615;28;20034;-82
2021/10/29 08:02:24;;;;;;;16.63;13.23;;;;;;;10.90;60.00;100570.72;5011733;28;20087;-83
2021/10/29 08:04:49;;;;;;;15.32;12.85;;;;;;;10.67;59.83;100513.09;4990494;28;20053;-82
2021/10/29 08:07:15;;;;;;;15.73;13.52;;;;;;;10.77;59.34;100511.19;5008501;28;20062;-83
2021/10/29 08:09:42;;;;;;;16.33;11.98;;;;;;;10.68;59.14;100500.72;5012783;28;20028;-83
2021/10/29 08:12:09;;;;;;;14.07;11.30;;;;;;;11.38;58.95;100583.41;5005519;28;20042;-82
2021/10/29 08:14:34;;;;;;;14.40;11.85;;;;;;;10.88;58.68;100486.31;4996234;28;20427;-82
2021/10/29 08:17:00;;;;;;;13.85;10.55;;;;;;;11.11;58.29;100518.31;5005371;28;20048;-82
2021/10/29 08:19:34;;;;;;;14.15;12.10;;;;;;;10.98;58.44;100483.56;4998689;28;20087;-83
2021/10/29 08:22:03;;;;;;;13.65;11.82;;;;;;;11.20;57.63;100517.41;5009768;28;20036;-81
2021/10/29 08:24:29;;;;;;;15.30;11.68;;;;;;;11.22;58.04;100510.13;5009993;28;20026;-83
2021/10/29 08:26:55;;;;;;;17.25;14.63;;;;;;;11.83;57.76;100587.59;5009477;28;20096;-82
2021/10/29 08:29:23;;;;;;;13.25;11.30;;;;;;;11.72;56.96;100563.06;5013856;28;20502;-83
2021/10/29 08:31:50;;;;;;;12.70;10.68;;;;;;;11.94;57.05;100584.69;5011854;28;20037;-81
2021/10/29 08:34:17;;;;;;;12.63;11.07;;;;;;;11.89;56.89;100586.94;5009957;28;20032;-83
2021/10/29 08:36:44;;;;;;;18.50;11.38;;;;;;;11.49;56.72;100509.09;5002165;28;20121;-83
2021/10/29 08:39:09;;;;;;;15.18;12.63;;;;;;;12.11;56.36;100582.91;4986450;28;20060;-83
2021/10/29 08:41:36;;;;;;;15.15;10.23;;;;;;;12.16;56.49;100583.22;5026999;28;20052;-82
2021/10/29 08:44:05;;;;;;;12.75;11.30;;;;;;;11.82;55.74;100517.97;5009640;28;20045;-82
2021/10/29 08:46:31;;;;;;;16.52;9.95;;;;;;;12.23;55.70;100579.78;4987664;28;20042;-83
2021/10/29 08:48:58;;;;;;;11.77;10.55;;;;;;;12.30;55.33;100578.13;4992128;28;20034;-82
2021/10/29 08:51:24;;;;;;;15.43;13.73;;;;;;;12.01;55.71;100520.34;4993173;28;20034;-83
2021/10/29 08:53:52;;;;;;;18.65;15.27;;;;;;;12.14;55.56;100524.31;5003949;28;20040;-82
2021/10/29 08:56:17;;;;;;;16.05;10.85;;;;;;;12.21;54.89;100517.38;5026690;28;20033;-83
2021/10/29 08:59:08;;;;;;;15.70;13.13;;;;;;;12.67;54.81;100569.72;5008920;28;20513;-82
2021/10/29 09:01:48;;;;;;;13.00;11.52;;;;;;;11.96;54.61;100445.91;5008538;28;20025;-83
2021/10/29 09:04:16;;;;;;;12.02;10.07;;;;;;;12.76;54.57;100557.28;5010940;28;20080;-84
2021/10/29 09:12:10;;;;;;;11.50;10.30;;;;;;;13.00;53.38;100574.97;4999980;28;20037;-83
2021/10/29 09:31:24;;;;;;;12.73;10.77;;;;;;;13.58;52.42;100564.09;4995668;28;20033;-76
2021/10/29 09:33:56;;;;;;;14.73;10.35;;;;;;;13.63;52.53;100545.81;5004124;28;20030;-77
2021/10/29 09:36:30;;;;;;;13.13;9.07;;;;;;;13.80;52.00;100553.69;5008100;28;20026;-77
2021/10/29 09:38:58;;;;;;;12.55;10.30;;;;;;;13.87;51.96;100557.31;5007191;28;20038;-78
2021/10/29 09:41:24;;;;;;;12.35;10.30;;;;;;;13.58;51.59;100484.50;5003548;28;20030;-76
2021/10/29 09:44:00;;;;;;;11.60;10.38;;;;;;;14.11;51.65;100543.06;5004538;28;20529;-77
2021/10/29 09:46:40;;;;;;;11.88;10.35;;;;;;;14.17;50.80;100540.56;5010637;28;20117;-77
2021/10/29 09:49:14;;;;;;;10.50;9.30;;;;;;;14.23;50.79;100539.84;4991968;28;20029;-77
2021/10/29 09:51:55;;;;;;;10.52;8.70;;;;;;;13.84;51.00;100470.88;4991674;28;20040;-77
2021/10/29 09:54:32;;;;;;;16.80;13.18;;;;;;;14.34;50.81;100535.94;4987228;28;20054;-77
2021/10/29 09:57:00;;;;;;;9.95;8.73;;;;;;;13.56;50.46;100390.97;5010781;28;20022;-77
2021/10/29 09:59:25;;;;;;;11.27;9.20;;;;;;;14.17;50.25;100462.69;4985781;28;20491;-77
2021/10/29 10:01:52;;;;;;;13.20;10.07;;;;;;;14.48;50.31;100505.97;5023781;28;20036;-77
2021/10/29 10:04:19;;;;;;;13.52;10.80;;;;;;;14.51;49.81;100494.97;5006503;28;20476;-77
2021/10/29 10:06:45;;;;;;;13.35;10.27;;;;;;;14.25;49.91;100452.00;5002303;28;20053;-77
2021/10/29 10:09:12;;;;;;;14.05;12.55;;;;;;;14.58;49.54;100497.72;5010865;28;20550;-78
2021/10/29 10:11:44;;;;;;;12.45;9.60;;;;;;;14.34;49.33;100448.28;5010767;28;20025;-77
2021/10/29 10:14:10;;;;;;;;;;;;;;;14.71;49.24;100511.22;4984738;28;20030;-77
2021/10/29 10:16:41;;;;;;;10.93;9.00;;;;;;;14.70;49.46;100479.50;4997684;28;19918;-78
2021/10/29 10:19:08;;;;;;;11.02;8.80;;;;;;;14.47;48.82;100423.75;5023554;28;20161;-77
2021/10/29 10:21:39;;;;;;;14.25;10.13;;;;;;;14.59;48.50;100439.09;5030482;28;20044;-77
2021/10/29 10:24:10;;;;;;;;;;;;;;;14.93;48.71;100491.75;5013368;28;20018;-77
2021/10/29 10:45:39;;;;;;;11.68;9.65;;;;;;;15.47;47.72;100475.44;5022895;28;20037;-77
2021/10/29 10:48:10;;;;;;;12.65;10.80;;;;;;;15.54;48.29;100475.53;5024277;28;20022;-77
2021/10/29 10:50:40;;;;;;;13.95;10.43;;;;;;;15.02;47.96;100380.78;5017557;28;20057;-78
2021/10/29 10:53:14;;;;;;;11.63;9.88;;;;;;;15.52;47.77;100465.06;5023873;28;20063;-77
2021/10/29 10:59:32;;;;;;;9.73;7.63;;;;;;;15.44;45.30;100470.50;5020899;28;20042;-76
2021/10/29 11:12:41;;;;;;;6.97;5.30;;;;;;;15.36;45.57;100440.53;5023334;28;20106;-77
2021/10/29 11:15:10;;;;;;;8.73;6.47;;;;;;;15.37;45.34;100439.50;5013662;28;20446;-82
2021/10/29 11:17:46;;;;;;;10.43;7.00;;;;;;;14.82;45.49;100351.25;5021914;28;20030;-81
2021/10/29 11:23:06;;;;;;;8.73;6.93;;;;;;;15.32;45.63;100442.72;5031523;28;20029;-77
2021/10/29 11:26:03;;;;;;;9.13;7.38;;;;;;;15.29;45.70;100423.66;5005997;28;20160;-78
2021/10/29 11:28:32;;;;;;;9.50;6.85;;;;;;;15.25;45.65;100429.34;5023706;28;20525;-77
2021/10/29 11:30:58;;;;;;;6.70;5.72;;;;;;;15.25;45.17;100425.88;5032505;28;20059;-78
2021/10/29 11:33:25;;;;;;;11.40;7.45;;;;;;;15.05;45.06;100400.84;5033349;28;20029;-77
2021/10/29 11:35:58;;;;;;;8.23;5.88;;;;;;;14.69;44.79;100350.28;5033042;28;20517;-77
2021/10/29 11:38:25;;;;;;;8.27;6.30;;;;;;;15.01;44.58;100383.63;5007416;28;20061;-77
2021/10/29 11:40:52;;;;;;;12.50;8.10;;;;;;;14.96;45.03;100399.31;5027363;28;20040;-78
2021/10/29 11:43:27;;;;;;;13.10;6.80;;;;;;;14.84;44.61;100375.81;5027338;28;20091;-77
2021/10/29 11:45:53;;;;;;;9.70;7.45;;;;;;;14.69;44.96;100347.63;5012395;28;20030;-77
2021/10/29 11:48:19;;;;;;;9.82;5.68;;;;;;;14.80;44.24;100371.06;5006880;28;20036;-77
2021/10/29 11:50:45;;;;;;;8.27;5.65;;;;;;;15.11;44.36;100418.72;5026383;28;20520;-78
2021/10/29 11:53:13;;;;;;;9.30;6.03;;;;;;;15.07;43.96;100423.59;5018341;28;20054;-77
2021/10/29 11:55:47;;;;;;;7.65;5.55;;;;;;;14.80;43.57;100379.03;5028210;28;20412;-77
2021/10/29 11:58:53;;;;;;;6.22;5.40;;;;;;;14.91;43.72;100394.56;5024121;28;20025;-78
2021/10/29 12:09:22;;;;;;;10.80;8.30;;;;;;;14.43;43.06;100305.56;5032411;28;20143;-77
2021/10/29 12:11:57;;;;;;;5.65;4.30;;;;;;;14.49;42.63;100323.44;5025405;28;20112;-78
2021/10/29 12:14:37;;;;;;;5.72;4.05;;;;;;;14.51;42.06;100326.72;5027771;28;20068;-77
2021/10/29 12:17:34;;;;;;;6.88;4.63;;;;;;;14.82;42.83;100359.22;5003892;28;20516;-77
2021/10/29 12:20:04;;;;;;;14.98;12.90;;;;;;;14.64;42.80;100332.22;4996150;28;20034;-78
2021/10/29 12:22:45;;;;;;;12.75;9.75;;;;;;;14.43;43.15;100313.53;4996754;28;20026;-77
2021/10/29 12:28:20;;;;;;;4.82;3.90;;;;;;;14.97;42.53;100399.13;4943394;29;20040;-77
2021/10/29 12:30:52;;;;;;;12.13;8.80;;;;;;;14.67;42.30;100341.66;4997789;28;20113;-77
2021/10/29 13:03:54;;;;;;;28.65;21.80;;;;;;;14.81;42.46;100316.88;5009207;28;20041;-82
2021/10/29 13:06:20;;;;;;;12.25;8.00;;;;;;;14.94;42.69;100343.66;5010456;28;20417;-83
2021/10/29 13:08:50;;;;;;;10.02;6.65;;;;;;;15.12;43.07;100376.00;5009909;28;20038;-83
2021/10/29 13:11:19;;;;;;;7.70;5.68;;;;;;;14.66;42.94;100302.78;5011013;28;20026;-83
2021/10/29 13:13:52;;;;;;;10.32;7.63;;;;;;;14.69;42.99;100300.59;4983707;28;20117;-82
2021/10/29 13:16:18;;;;;;;8.35;5.72;;;;;;;14.91;43.15;100331.56;5002919;28;20053;-83
2021/10/29 13:28:41;;;;;;;16.67;12.27;;;;;;;15.06;44.30;100339.50;5004013;28;20021;-83
2021/10/29 13:50:22;;;;;;;11.07;9.70;;;;;;;14.98;44.90;100298.91;4997699;28;20172;-83
2021/10/29 14:28:46;;;;;;;8.70;7.30;;;;;;;15.57;46.44;100352.72;5012913;28;20076;-77
2021/10/29 14:31:19;;;;;;;10.55;8.18;;;;;;;15.49;46.53;100355.50;5022737;28;20041;-77
2021/10/29 14:33:51;;;;;;;14.15;11.50;;;;;;;15.39;46.93;100358.47;5030494;28;20029;-78
2021/10/29 14:36:18;;;;;;;12.63;8.90;;;;;;;14.59;47.15;100239.75;5002068;28;20029;-78
2021/10/29 14:39:05;;;;;;;13.45;9.80;;;;;;;14.78;47.31;100277.38;5031564;28;20196;-78
2021/10/29 14:41:37;;;;;;;14.48;12.02;;;;;;;15.11;47.35;100333.63;5030610;28;20037;-77
2021/10/29 14:44:15;;;;;;;15.50;9.23;;;;;;;15.10;47.33;100337.28;5011481;28;20037;-78
2021/10/29 14:46:48;;;;;;;10.55;8.35;;;;;;;14.57;47.74;100278.97;5028822;28;20176;-76
2021/10/29 15:16:11;;;;;;;16.65;11.40;;;;;;;14.22;49.50;100283.19;5032918;28;20041;-76
2021/10/29 15:26:57;;;;;;;18.23;13.68;;;;;;;14.32;50.04;100336.06;5014023;28;20040;-82
2021/10/29 15:29:43;;;;;;;19.25;16.48;;;;;;;14.38;50.23;100372.50;5013933;28;20454;-82
2021/10/29 15:45:35;;;;;;;22.83;15.77;;;;;;;13.47;50.93;100253.25;5013687;28;20030;-82
2021/10/29 15:48:07;;;;;;;21.80;16.30;;;;;;;13.57;51.11;100277.69;5013485;28;20034;-82
2021/10/29 15:50:35;;;;;;;;;;;;;;;13.98;51.96;100363.09;4995001;28;20033;-82
2021/10/29 15:53:00;;;;;;;23.38;18.15;;;;;;;13.27;51.72;100252.88;5013333;28;19955;-82
2021/10/29 15:55:40;;;;;;;28.40;18.30;;;;;;;14.01;51.87;100365.38;5013168;28;20029;-82
2021/10/29 16:03:19;;;;;;;32.55;22.15;;;;;;;13.45;52.47;100303.00;5012938;28;20037;-83
2021/10/29 16:19:24;;;;;;;71.82;46.92;;;;;;;12.99;53.52;100294.97;5013069;28;20033;-83